sensor_id;sensor_type;location;lat;lon;timestamp;temperature;humidity
28677;DHT22;15858;48.338;11.078;2023-05-19T00:02:05;10.10;99.90
28677;DHT22;15858;48.338;11.078;2023-05-19T00:04:32;10.10;99.90
28677;DHT22;15858;48.338;11.078;2023-05-19T00:06:59;10.10;99.90
28677;DHT22;15858;48.338;11.078;2023-05-19T00:09:26;10.00;99.90
28677;DHT22;15858;48.338;11.078;2023-05-19T00:11:53;10.10;99.90
28677;DHT22;15858;48.338;11.078;2023-05-19T00:14:20;10.00;99.90
28677;DHT22;15858;48.338;11.078;2023-05-19T00:16:47;10.00;99.90
28677;DHT22;15858;48.338;11.078;2023-05-19T00:19:14;10.00;99.90
28677;DHT22;15858;48.338;11.078;2023-05-19T00:21:40;10.00;99.90
28677;DHT22;15858;48.338;11.078;2023-05-19T00:24:07;9.90;99.90
28677;DHT22;15858;48.338;11.078;2023-05-19T00:26:34;9.90;99.90
28677;DHT22;15858;48.338;11.078;2023-05-19T00:29:00;9.90;99.90
28677;DHT22;15858;48.338;11.078;2023-05-19T00:31:27;9.90;99.90
28677;DHT22;15858;48.338;11.078;2023-05-19T00:33:54;10.00;99.90
28677;DHT22;15858;48.338;11.078;2023-05-19T00:36:20;9.90;99.90
28677;DHT22;15858;48.338;11.078;2023-05-19T00:38:47;9.90;99.90
28677;DHT22;15858;48.338;11.078;2023-05-19T00:41:14;9.90;99.90
28677;DHT22;15858;48.338;11.078;2023-05-19T00:43:40;9.90;99.90
28677;DHT22;15858;48.338;11.078;2023-05-19T00:46:07;9.90;99.90
28677;DHT22;15858;48.338;11.078;2023-05-19T00:48:34;9.90;99.90
28677;DHT22;15858;48.338;11.078;2023-05-19T00:51:02;9.80;99.90
28677;DHT22;15858;48.338;11.078;2023-05-19T00:53:33;9.80;99.90
28677;DHT22;15858;48.338;11.078;2023-05-19T00:56:02;9.80;99.90
28677;DHT22;15858;48.338;11.078;2023-05-19T00:58:29;9.80;99.90
28677;DHT22;15858;48.338;11.078;2023-05-19T01:00:57;9.80;99.90
28677;DHT22;15858;48.338;11.078;2023-05-19T01:03:24;9.70;99.90
28677;DHT22;15858;48.338;11.078;2023-05-19T01:05:51;9.70;99.90
28677;DHT22;15858;48.338;11.078;2023-05-19T01:08:18;9.70;99.90
28677;DHT22;15858;48.338;11.078;2023-05-19T01:10:46;9.60;99.90
28677;DHT22;15858;48.338;11.078;2023-05-19T01:13:12;9.60;99.90
28677;DHT22;15858;48.338;11.078;2023-05-19T01:16:03;9.50;99.90
28677;DHT22;15858;48.338;11.078;2023-05-19T01:18:45;9.50;99.90
28677;DHT22;15858;48.338;11.078;2023-05-19T01:23:58;9.40;99.90
28677;DHT22;15858;48.338;11.078;2023-05-19T01:32:19;9.40;99.90
28677;DHT22;15858;48.338;11.078;2023-05-19T01:34:49;9.30;99.90
28677;DHT22;15858;48.338;11.078;2023-05-19T01:37:16;9.30;99.90
28677;DHT22;15858;48.338;11.078;2023-05-19T01:39:43;9.30;99.90
28677;DHT22;15858;48.338;11.078;2023-05-19T01:42:11;9.30;99.90
28677;DHT22;15858;48.338;11.078;2023-05-19T01:44:39;9.30;99.90
28677;DHT22;15858;48.338;11.078;2023-05-19T01:47:07;9.20;99.90
28677;DHT22;15858;48.338;11.078;2023-05-19T01:49:34;9.30;99.90
28677;DHT22;15858;48.338;11.078;2023-05-19T01:52:01;9.30;99.90
28677;DHT22;15858;48.338;11.078;2023-05-19T01:54:28;9.20;99.90
28677;DHT22;15858;48.338;11.078;2023-05-19T01:57:39;9.20;99.90
28677;DHT22;15858;48.338;11.078;2023-05-19T02:03:06;9.10;99.90
28677;DHT22;15858;48.338;11.078;2023-05-19T02:10:59;9.10;99.90
28677;DHT22;15858;48.338;11.078;2023-05-19T02:13:31;9.20;99.90
28677;DHT22;15858;48.338;11.078;2023-05-19T02:16:03;9.20;99.90
28677;DHT22;15858;48.338;11.078;2023-05-19T02:18:31;9.20;99.90
28677;DHT22;15858;48.338;11.078;2023-05-19T02:20:58;9.20;99.90
28677;DHT22;15858;48.338;11.078;2023-05-19T02:23:25;9.10;99.90
28677;DHT22;15858;48.338;11.078;2023-05-19T02:25:52;9.10;99.90
28677;DHT22;15858;48.338;11.078;2023-05-19T02:28:19;9.10;99.90
28677;DHT22;15858;48.338;11.078;2023-05-19T02:30:45;9.10;99.90
28677;DHT22;15858;48.338;11.078;2023-05-19T02:33:12;9.10;99.90
28677;DHT22;15858;48.338;11.078;2023-05-19T02:35:39;9.10;99.90
28677;DHT22;15858;48.338;11.078;2023-05-19T02:38:05;9.10;99.90
28677;DHT22;15858;48.338;11.078;2023-05-19T02:40:32;9.10;99.90
28677;DHT22;15858;48.338;11.078;2023-05-19T02:42:59;9.10;99.90
28677;DHT22;15858;48.338;11.078;2023-05-19T02:45:26;9.10;99.90
28677;DHT22;15858;48.338;11.078;2023-05-19T02:47:52;9.10;99.90
28677;DHT22;15858;48.338;11.078;2023-05-19T02:50:19;9.20;99.90
28677;DHT22;15858;48.338;11.078;2023-05-19T02:52:45;9.20;99.90
28677;DHT22;15858;48.338;11.078;2023-05-19T02:55:12;9.10;99.90
28677;DHT22;15858;48.338;11.078;2023-05-19T02:57:39;9.10;99.90
28677;DHT22;15858;48.338;11.078;2023-05-19T03:00:06;9.20;99.90
28677;DHT22;15858;48.338;11.078;2023-05-19T03:02:33;9.20;99.90
28677;DHT22;15858;48.338;11.078;2023-05-19T03:05:00;9.20;99.90
28677;DHT22;15858;48.338;11.078;2023-05-19T03:07:26;9.20;99.90
28677;DHT22;15858;48.338;11.078;2023-05-19T03:09:53;9.20;99.90
28677;DHT22;15858;48.338;11.078;2023-05-19T03:12:20;9.20;99.90
28677;DHT22;15858;48.338;11.078;2023-05-19T03:14:46;9.20;99.90
28677;DHT22;15858;48.338;11.078;2023-05-19T03:17:13;9.20;99.90
28677;DHT22;15858;48.338;11.078;2023-05-19T03:19:40;9.30;99.90
28677;DHT22;15858;48.338;11.078;2023-05-19T03:22:06;9.30;99.90
28677;DHT22;15858;48.338;11.078;2023-05-19T03:24:33;9.20;99.90
28677;DHT22;15858;48.338;11.078;2023-05-19T03:27:00;9.20;99.90
28677;DHT22;15858;48.338;11.078;2023-05-19T03:29:26;9.20;99.90
28677;DHT22;15858;48.338;11.078;2023-05-19T03:31:53;9.20;99.90
28677;DHT22;15858;48.338;11.078;2023-05-19T03:34:19;9.20;99.90
28677;DHT22;15858;48.338;11.078;2023-05-19T03:36:46;9.30;99.90
28677;DHT22;15858;48.338;11.078;2023-05-19T03:39:13;9.30;99.90
28677;DHT22;15858;48.338;11.078;2023-05-19T03:41:39;9.30;99.90
28677;DHT22;15858;48.338;11.078;2023-05-19T03:44:06;9.30;99.90
28677;DHT22;15858;48.338;11.078;2023-05-19T03:46:33;9.40;99.90
28677;DHT22;15858;48.338;11.078;2023-05-19T03:48:59;9.30;99.90
28677;DHT22;15858;48.338;11.078;2023-05-19T03:51:26;9.30;99.90
28677;DHT22;15858;48.338;11.078;2023-05-19T03:53:53;9.30;99.90
28677;DHT22;15858;48.338;11.078;2023-05-19T03:56:19;9.30;99.90
28677;DHT22;15858;48.338;11.078;2023-05-19T03:58:46;9.30;99.90
28677;DHT22;15858;48.338;11.078;2023-05-19T04:01:12;9.30;99.90
28677;DHT22;15858;48.338;11.078;2023-05-19T04:03:39;9.30;99.90
28677;DHT22;15858;48.338;11.078;2023-05-19T04:06:06;9.30;99.90
28677;DHT22;15858;48.338;11.078;2023-05-19T04:08:33;9.30;99.90
28677;DHT22;15858;48.338;11.078;2023-05-19T04:11:00;9.30;99.90
28677;DHT22;15858;48.338;11.078;2023-05-19T04:13:26;9.30;99.90
28677;DHT22;15858;48.338;11.078;2023-05-19T04:15:53;9.30;99.90
28677;DHT22;15858;48.338;11.078;2023-05-19T04:18:20;9.40;99.90
28677;DHT22;15858;48.338;11.078;2023-05-19T04:20:46;9.40;99.90
28677;DHT22;15858;48.338;11.078;2023-05-19T04:23:13;9.40;99.90
28677;DHT22;15858;48.338;11.078;2023-05-19T04:25:39;9.50;99.90
28677;DHT22;15858;48.338;11.078;2023-05-19T04:28:06;9.50;99.90
28677;DHT22;15858;48.338;11.078;2023-05-19T04:30:33;9.50;99.90
28677;DHT22;15858;48.338;11.078;2023-05-19T04:33:00;9.50;99.90
28677;DHT22;15858;48.338;11.078;2023-05-19T04:35:27;9.50;99.90
28677;DHT22;15858;48.338;11.078;2023-05-19T04:37:53;9.40;99.90
28677;DHT22;15858;48.338;11.078;2023-05-19T04:40:20;9.40;99.90
28677;DHT22;15858;48.338;11.078;2023-05-19T04:42:46;9.40;99.90
28677;DHT22;15858;48.338;11.078;2023-05-19T04:45:13;9.40;99.90
28677;DHT22;15858;48.338;11.078;2023-05-19T04:47:40;9.50;99.90
28677;DHT22;15858;48.338;11.078;2023-05-19T04:50:07;9.50;99.90
28677;DHT22;15858;48.338;11.078;2023-05-19T04:52:34;9.50;99.90
28677;DHT22;15858;48.338;11.078;2023-05-19T04:55:00;9.60;99.90
28677;DHT22;15858;48.338;11.078;2023-05-19T04:57:27;9.70;99.90
28677;DHT22;15858;48.338;11.078;2023-05-19T04:59:54;9.60;99.90
28677;DHT22;15858;48.338;11.078;2023-05-19T05:02:20;9.60;99.90
28677;DHT22;15858;48.338;11.078;2023-05-19T05:04:47;9.60;99.90
28677;DHT22;15858;48.338;11.078;2023-05-19T05:07:14;9.70;99.90
28677;DHT22;15858;48.338;11.078;2023-05-19T05:09:40;9.70;99.90
28677;DHT22;15858;48.338;11.078;2023-05-19T05:12:07;9.70;99.90
28677;DHT22;15858;48.338;11.078;2023-05-19T05:14:34;9.80;99.90
28677;DHT22;15858;48.338;11.078;2023-05-19T05:17:01;9.80;99.90
28677;DHT22;15858;48.338;11.078;2023-05-19T05:19:28;9.80;99.90
28677;DHT22;15858;48.338;11.078;2023-05-19T05:21:55;9.80;99.90
28677;DHT22;15858;48.338;11.078;2023-05-19T05:24:22;9.90;99.90
28677;DHT22;15858;48.338;11.078;2023-05-19T05:26:49;9.90;99.90
28677;DHT22;15858;48.338;11.078;2023-05-19T05:29:16;9.90;99.90
28677;DHT22;15858;48.338;11.078;2023-05-19T05:31:42;9.90;99.90
28677;DHT22;15858;48.338;11.078;2023-05-19T05:34:09;9.90;99.90
28677;DHT22;15858;48.338;11.078;2023-05-19T05:36:36;10.00;99.90
28677;DHT22;15858;48.338;11.078;2023-05-19T05:39:03;10.00;99.90
28677;DHT22;15858;48.338;11.078;2023-05-19T05:41:29;10.10;99.90
28677;DHT22;15858;48.338;11.078;2023-05-19T05:43:56;10.20;99.90
28677;DHT22;15858;48.338;11.078;2023-05-19T05:46:23;10.30;99.90
28677;DHT22;15858;48.338;11.078;2023-05-19T05:48:50;10.20;99.90
28677;DHT22;15858;48.338;11.078;2023-05-19T05:51:17;10.30;99.90
28677;DHT22;15858;48.338;11.078;2023-05-19T05:53:51;10.30;99.90
28677;DHT22;15858;48.338;11.078;2023-05-19T05:56:19;10.40;99.90
28677;DHT22;15858;48.338;11.078;2023-05-19T05:58:46;10.50;99.90
28677;DHT22;15858;48.338;11.078;2023-05-19T06:01:12;10.50;99.90
28677;DHT22;15858;48.338;11.078;2023-05-19T06:03:40;10.60;99.90
28677;DHT22;15858;48.338;11.078;2023-05-19T06:06:07;10.70;99.90
28677;DHT22;15858;48.338;11.078;2023-05-19T06:08:34;10.80;99.90
28677;DHT22;15858;48.338;11.078;2023-05-19T06:11:01;10.80;99.90
28677;DHT22;15858;48.338;11.078;2023-05-19T06:13:27;10.90;99.90
28677;DHT22;15858;48.338;11.078;2023-05-19T06:15:54;10.80;99.90
28677;DHT22;15858;48.338;11.078;2023-05-19T06:18:20;10.90;99.90
28677;DHT22;15858;48.338;11.078;2023-05-19T06:20:47;11.00;99.90
28677;DHT22;15858;48.338;11.078;2023-05-19T06:23:14;11.00;99.90
28677;DHT22;15858;48.338;11.078;2023-05-19T06:25:40;11.00;99.90
28677;DHT22;15858;48.338;11.078;2023-05-19T06:28:07;11.10;99.90
28677;DHT22;15858;48.338;11.078;2023-05-19T06:30:34;11.30;99.90
28677;DHT22;15858;48.338;11.078;2023-05-19T06:33:01;11.40;99.90
28677;DHT22;15858;48.338;11.078;2023-05-19T06:35:28;11.40;99.90
28677;DHT22;15858;48.338;11.078;2023-05-19T06:37:55;11.40;99.90
28677;DHT22;15858;48.338;11.078;2023-05-19T06:40:22;11.40;99.90
28677;DHT22;15858;48.338;11.078;2023-05-19T06:42:49;11.40;99.90
28677;DHT22;15858;48.338;11.078;2023-05-19T06:45:15;11.40;99.90
28677;DHT22;15858;48.338;11.078;2023-05-19T06:47:42;11.60;99.90
28677;DHT22;15858;48.338;11.078;2023-05-19T06:50:09;11.60;99.90
28677;DHT22;15858;48.338;11.078;2023-05-19T06:52:36;11.70;99.90
28677;DHT22;15858;48.338;11.078;2023-05-19T06:55:03;11.70;99.90
28677;DHT22;15858;48.338;11.078;2023-05-19T06:57:30;11.70;99.90
28677;DHT22;15858;48.338;11.078;2023-05-19T06:59:57;11.80;99.90
28677;DHT22;15858;48.338;11.078;2023-05-19T07:02:26;11.90;99.90
28677;DHT22;15858;48.338;11.078;2023-05-19T07:04:52;11.90;99.90
28677;DHT22;15858;48.338;11.078;2023-05-19T07:07:19;12.10;99.90
28677;DHT22;15858;48.338;11.078;2023-05-19T07:09:46;12.10;99.90
28677;DHT22;15858;48.338;11.078;2023-05-19T07:12:12;12.10;99.90
28677;DHT22;15858;48.338;11.078;2023-05-19T07:14:39;12.10;99.90
28677;DHT22;15858;48.338;11.078;2023-05-19T07:17:05;12.10;99.90
28677;DHT22;15858;48.338;11.078;2023-05-19T07:19:35;12.00;99.90
28677;DHT22;15858;48.338;11.078;2023-05-19T07:22:01;11.90;99.90
28677;DHT22;15858;48.338;11.078;2023-05-19T07:24:28;11.90;99.90
28677;DHT22;15858;48.338;11.078;2023-05-19T07:26:55;11.90;99.90
28677;DHT22;15858;48.338;11.078;2023-05-19T07:29:21;11.90;99.90
28677;DHT22;15858;48.338;11.078;2023-05-19T07:31:48;12.00;99.90
28677;DHT22;15858;48.338;11.078;2023-05-19T07:34:15;12.10;99.90
28677;DHT22;15858;48.338;11.078;2023-05-19T07:36:41;12.20;99.90
28677;DHT22;15858;48.338;11.078;2023-05-19T07:39:08;12.20;99.90
28677;DHT22;15858;48.338;11.078;2023-05-19T07:41:35;12.20;99.90
28677;DHT22;15858;48.338;11.078;2023-05-19T07:44:02;12.20;99.90
28677;DHT22;15858;48.338;11.078;2023-05-19T07:46:28;12.10;99.90
28677;DHT22;15858;48.338;11.078;2023-05-19T07:48:55;12.00;99.90
28677;DHT22;15858;48.338;11.078;2023-05-19T07:51:22;12.00;99.90
28677;DHT22;15858;48.338;11.078;2023-05-19T07:53:48;12.00;99.90
28677;DHT22;15858;48.338;11.078;2023-05-19T07:56:15;12.10;99.90
28677;DHT22;15858;48.338;11.078;2023-05-19T07:58:42;12.20;99.90
28677;DHT22;15858;48.338;11.078;2023-05-19T08:01:08;12.30;99.90
28677;DHT22;15858;48.338;11.078;2023-05-19T08:03:35;12.20;99.90
28677;DHT22;15858;48.338;11.078;2023-05-19T08:06:02;12.30;99.90
28677;DHT22;15858;48.338;11.078;2023-05-19T08:08:28;12.20;99.90
28677;DHT22;15858;48.338;11.078;2023-05-19T08:10:55;12.10;99.90
28677;DHT22;15858;48.338;11.078;2023-05-19T08:13:22;12.00;99.90
28677;DHT22;15858;48.338;11.078;2023-05-19T08:15:48;12.00;99.90
28677;DHT22;15858;48.338;11.078;2023-05-19T08:18:15;12.00;99.90
28677;DHT22;15858;48.338;11.078;2023-05-19T08:20:42;12.00;99.90
28677;DHT22;15858;48.338;11.078;2023-05-19T08:23:08;11.80;99.90
28677;DHT22;15858;48.338;11.078;2023-05-19T08:25:35;11.90;99.90
28677;DHT22;15858;48.338;11.078;2023-05-19T08:28:02;11.90;99.90
28677;DHT22;15858;48.338;11.078;2023-05-19T08:30:28;11.90;99.90
28677;DHT22;15858;48.338;11.078;2023-05-19T08:32:55;11.90;99.90
28677;DHT22;15858;48.338;11.078;2023-05-19T08:35:22;11.80;99.90
28677;DHT22;15858;48.338;11.078;2023-05-19T08:37:48;11.90;99.90
28677;DHT22;15858;48.338;11.078;2023-05-19T08:40:16;11.80;99.90
28677;DHT22;15858;48.338;11.078;2023-05-19T08:42:46;11.90;99.90
28677;DHT22;15858;48.338;11.078;2023-05-19T08:45:13;11.90;99.90
28677;DHT22;15858;48.338;11.078;2023-05-19T08:47:44;11.90;99.90
28677;DHT22;15858;48.338;11.078;2023-05-19T08:50:16;11.90;99.90
28677;DHT22;15858;48.338;11.078;2023-05-19T08:52:58;11.90;99.90
28677;DHT22;15858;48.338;11.078;2023-05-19T08:55:34;11.90;99.90
28677;DHT22;15858;48.338;11.078;2023-05-19T08:58:03;11.90;99.90
28677;DHT22;15858;48.338;11.078;2023-05-19T09:00:30;11.90;99.90
28677;DHT22;15858;48.338;11.078;2023-05-19T09:02:58;11.90;99.90
28677;DHT22;15858;48.338;11.078;2023-05-19T09:05:43;11.80;99.90
28677;DHT22;15858;48.338;11.078;2023-05-19T09:08:10;11.90;99.90
28677;DHT22;15858;48.338;11.078;2023-05-19T09:10:37;11.90;99.90
28677;DHT22;15858;48.338;11.078;2023-05-19T09:13:04;11.90;99.90
28677;DHT22;15858;48.338;11.078;2023-05-19T09:15:31;12.00;99.90
28677;DHT22;15858;48.338;11.078;2023-05-19T09:18:06;12.00;99.90
28677;DHT22;15858;48.338;11.078;2023-05-19T09:20:39;12.00;99.90
28677;DHT22;15858;48.338;11.078;2023-05-19T09:23:06;12.10;99.90
28677;DHT22;15858;48.338;11.078;2023-05-19T09:25:32;12.10;99.90
28677;DHT22;15858;48.338;11.078;2023-05-19T09:28:00;12.20;99.90
28677;DHT22;15858;48.338;11.078;2023-05-19T09:30:26;12.30;99.90
28677;DHT22;15858;48.338;11.078;2023-05-19T09:32:53;12.30;99.90
28677;DHT22;15858;48.338;11.078;2023-05-19T09:35:19;12.40;99.90
28677;DHT22;15858;48.338;11.078;2023-05-19T09:37:46;12.50;99.90
28677;DHT22;15858;48.338;11.078;2023-05-19T09:40:14;12.60;99.90
28677;DHT22;15858;48.338;11.078;2023-05-19T09:42:41;12.60;99.90
28677;DHT22;15858;48.338;11.078;2023-05-19T09:45:08;12.60;99.90
28677;DHT22;15858;48.338;11.078;2023-05-19T09:47:35;12.70;99.90
28677;DHT22;15858;48.338;11.078;2023-05-19T09:50:04;12.70;99.90
28677;DHT22;15858;48.338;11.078;2023-05-19T09:52:31;12.60;99.90
28677;DHT22;15858;48.338;11.078;2023-05-19T09:55:00;12.50;99.90
28677;DHT22;15858;48.338;11.078;2023-05-19T09:57:32;12.40;99.90
28677;DHT22;15858;48.338;11.078;2023-05-19T10:00:00;12.50;99.90
28677;DHT22;15858;48.338;11.078;2023-05-19T10:02:28;12.60;99.90
28677;DHT22;15858;48.338;11.078;2023-05-19T10:04:55;12.60;99.90
28677;DHT22;15858;48.338;11.078;2023-05-19T10:07:22;12.70;99.90
28677;DHT22;15858;48.338;11.078;2023-05-19T10:09:50;12.70;99.90
28677;DHT22;15858;48.338;11.078;2023-05-19T10:12:19;12.80;99.90
28677;DHT22;15858;48.338;11.078;2023-05-19T10:14:46;12.70;99.90
28677;DHT22;15858;48.338;11.078;2023-05-19T10:17:14;12.70;99.90
28677;DHT22;15858;48.338;11.078;2023-05-19T10:19:42;12.60;99.90
28677;DHT22;15858;48.338;11.078;2023-05-19T10:22:09;12.70;99.90
28677;DHT22;15858;48.338;11.078;2023-05-19T10:24:36;12.60;99.90
28677;DHT22;15858;48.338;11.078;2023-05-19T10:27:07;12.70;99.90
28677;DHT22;15858;48.338;11.078;2023-05-19T10:29:38;12.60;99.90
28677;DHT22;15858;48.338;11.078;2023-05-19T10:32:10;12.70;99.90
28677;DHT22;15858;48.338;11.078;2023-05-19T10:37:52;12.60;99.90
28677;DHT22;15858;48.338;11.078;2023-05-19T10:40:29;12.50;99.90
28677;DHT22;15858;48.338;11.078;2023-05-19T10:43:04;12.60;99.90
28677;DHT22;15858;48.338;11.078;2023-05-19T10:45:48;12.70;99.90
28677;DHT22;15858;48.338;11.078;2023-05-19T10:48:18;12.50;99.90
28677;DHT22;15858;48.338;11.078;2023-05-19T10:50:46;12.60;99.90
28677;DHT22;15858;48.338;11.078;2023-05-19T10:53:17;12.60;99.90
28677;DHT22;15858;48.338;11.078;2023-05-19T10:55:54;12.60;99.90
28677;DHT22;15858;48.338;11.078;2023-05-19T11:01:17;12.50;99.90
28677;DHT22;15858;48.338;11.078;2023-05-19T11:03:52;12.50;99.90
28677;DHT22;15858;48.338;11.078;2023-05-19T11:06:31;12.70;99.90
28677;DHT22;15858;48.338;11.078;2023-05-19T11:09:00;12.70;99.90
28677;DHT22;15858;48.338;11.078;2023-05-19T11:14:10;12.80;99.90
28677;DHT22;15858;48.338;11.078;2023-05-19T11:16:38;12.80;99.90
28677;DHT22;15858;48.338;11.078;2023-05-19T11:19:05;12.80;99.90
28677;DHT22;15858;48.338;11.078;2023-05-19T11:21:48;12.80;99.90
28677;DHT22;15858;48.338;11.078;2023-05-19T11:24:43;12.80;99.90
28677;DHT22;15858;48.338;11.078;2023-05-19T11:27:33;12.90;99.90
28677;DHT22;15858;48.338;11.078;2023-05-19T11:30:10;12.70;99.90
28677;DHT22;15858;48.338;11.078;2023-05-19T11:32:36;12.70;99.90
28677;DHT22;15858;48.338;11.078;2023-05-19T11:35:03;12.70;99.90
28677;DHT22;15858;48.338;11.078;2023-05-19T11:37:31;12.60;99.90
28677;DHT22;15858;48.338;11.078;2023-05-19T11:40:00;12.60;99.90
28677;DHT22;15858;48.338;11.078;2023-05-19T11:42:27;12.60;99.90
28677;DHT22;15858;48.338;11.078;2023-05-19T11:44:54;12.50;99.90
28677;DHT22;15858;48.338;11.078;2023-05-19T11:47:21;12.60;99.90
28677;DHT22;15858;48.338;11.078;2023-05-19T11:49:49;12.70;99.90
28677;DHT22;15858;48.338;11.078;2023-05-19T11:52:15;12.60;99.90
28677;DHT22;15858;48.338;11.078;2023-05-19T11:54:47;12.70;99.90
28677;DHT22;15858;48.338;11.078;2023-05-19T11:57:14;12.80;99.90
28677;DHT22;15858;48.338;11.078;2023-05-19T11:59:41;12.80;99.90
28677;DHT22;15858;48.338;11.078;2023-05-19T12:02:20;12.70;99.90
28677;DHT22;15858;48.338;11.078;2023-05-19T12:04:48;12.70;99.90
28677;DHT22;15858;48.338;11.078;2023-05-19T12:07:16;12.70;99.90
28677;DHT22;15858;48.338;11.078;2023-05-19T12:09:44;12.80;99.90
28677;DHT22;15858;48.338;11.078;2023-05-19T12:12:18;12.90;99.90
28677;DHT22;15858;48.338;11.078;2023-05-19T12:14:45;13.00;99.90
28677;DHT22;15858;48.338;11.078;2023-05-19T12:17:13;12.90;99.90
28677;DHT22;15858;48.338;11.078;2023-05-19T12:19:42;13.00;99.90
28677;DHT22;15858;48.338;11.078;2023-05-19T12:22:09;13.00;99.90
28677;DHT22;15858;48.338;11.078;2023-05-19T12:24:37;13.00;99.90
28677;DHT22;15858;48.338;11.078;2023-05-19T12:27:18;13.00;99.90
28677;DHT22;15858;48.338;11.078;2023-05-19T12:29:53;13.10;99.90
28677;DHT22;15858;48.338;11.078;2023-05-19T12:32:23;13.20;99.90
28677;DHT22;15858;48.338;11.078;2023-05-19T12:34:51;13.50;99.90
28677;DHT22;15858;48.338;11.078;2023-05-19T12:37:18;13.60;99.90
28677;DHT22;15858;48.338;11.078;2023-05-19T12:39:45;13.80;99.90
28677;DHT22;15858;48.338;11.078;2023-05-19T12:42:15;13.80;99.90
28677;DHT22;15858;48.338;11.078;2023-05-19T12:44:44;13.80;99.90
28677;DHT22;15858;48.338;11.078;2023-05-19T12:47:11;13.90;99.90
28677;DHT22;15858;48.338;11.078;2023-05-19T12:49:56;14.10;99.90
28677;DHT22;15858;48.338;11.078;2023-05-19T12:52:22;14.00;99.90
28677;DHT22;15858;48.338;11.078;2023-05-19T12:54:56;14.10;99.90
28677;DHT22;15858;48.338;11.078;2023-05-19T12:57:24;14.10;99.90
28677;DHT22;15858;48.338;11.078;2023-05-19T12:59:52;14.20;99.90
28677;DHT22;15858;48.338;11.078;2023-05-19T13:02:18;14.20;99.90
28677;DHT22;15858;48.338;11.078;2023-05-19T13:04:45;14.20;99.90
28677;DHT22;15858;48.338;11.078;2023-05-19T13:07:12;14.30;99.90
28677;DHT22;15858;48.338;11.078;2023-05-19T13:09:38;14.20;99.90
28677;DHT22;15858;48.338;11.078;2023-05-19T13:12:05;14.40;99.90
28677;DHT22;15858;48.338;11.078;2023-05-19T13:14:32;14.40;99.90
28677;DHT22;15858;48.338;11.078;2023-05-19T13:16:58;14.30;99.90
28677;DHT22;15858;48.338;11.078;2023-05-19T13:19:25;14.20;99.90
28677;DHT22;15858;48.338;11.078;2023-05-19T13:21:52;14.20;99.90
28677;DHT22;15858;48.338;11.078;2023-05-19T13:24:19;14.20;99.90
28677;DHT22;15858;48.338;11.078;2023-05-19T13:26:45;14.10;99.90
28677;DHT22;15858;48.338;11.078;2023-05-19T13:29:12;14.20;99.90
28677;DHT22;15858;48.338;11.078;2023-05-19T13:31:38;14.40;99.90
28677;DHT22;15858;48.338;11.078;2023-05-19T13:34:05;14.40;99.90
28677;DHT22;15858;48.338;11.078;2023-05-19T13:36:32;14.40;99.90
28677;DHT22;15858;48.338;11.078;2023-05-19T13:38:59;14.60;99.90
28677;DHT22;15858;48.338;11.078;2023-05-19T13:41:26;14.80;99.90
28677;DHT22;15858;48.338;11.078;2023-05-19T13:43:53;14.90;99.90
28677;DHT22;15858;48.338;11.078;2023-05-19T13:46:19;15.10;99.90
28677;DHT22;15858;48.338;11.078;2023-05-19T13:48:58;15.20;99.90
28677;DHT22;15858;48.338;11.078;2023-05-19T13:51:25;15.20;99.90
28677;DHT22;15858;48.338;11.078;2023-05-19T13:53:52;15.10;99.90
28677;DHT22;15858;48.338;11.078;2023-05-19T13:56:18;15.00;99.90
28677;DHT22;15858;48.338;11.078;2023-05-19T13:58:45;15.00;99.90
28677;DHT22;15858;48.338;11.078;2023-05-19T14:01:11;14.90;99.90
28677;DHT22;15858;48.338;11.078;2023-05-19T14:03:38;15.00;99.90
28677;DHT22;15858;48.338;11.078;2023-05-19T14:06:05;15.00;99.90
28677;DHT22;15858;48.338;11.078;2023-05-19T14:08:31;15.00;99.90
28677;DHT22;15858;48.338;11.078;2023-05-19T14:10:58;14.90;99.90
28677;DHT22;15858;48.338;11.078;2023-05-19T14:13:25;15.00;99.90
28677;DHT22;15858;48.338;11.078;2023-05-19T14:16:00;14.90;99.90
28677;DHT22;15858;48.338;11.078;2023-05-19T14:18:27;14.80;99.90
28677;DHT22;15858;48.338;11.078;2023-05-19T14:20:54;14.80;99.90
28677;DHT22;15858;48.338;11.078;2023-05-19T14:23:20;14.80;99.90
28677;DHT22;15858;48.338;11.078;2023-05-19T14:25:47;14.80;99.90
28677;DHT22;15858;48.338;11.078;2023-05-19T14:28:14;14.90;99.90
28677;DHT22;15858;48.338;11.078;2023-05-19T14:30:41;15.10;99.90
28677;DHT22;15858;48.338;11.078;2023-05-19T14:33:08;15.10;99.90
28677;DHT22;15858;48.338;11.078;2023-05-19T14:35:35;15.20;99.90
28677;DHT22;15858;48.338;11.078;2023-05-19T14:38:01;15.30;99.90
28677;DHT22;15858;48.338;11.078;2023-05-19T14:40:28;15.30;99.90
28677;DHT22;15858;48.338;11.078;2023-05-19T14:42:55;15.30;99.90
28677;DHT22;15858;48.338;11.078;2023-05-19T14:45:21;15.30;99.90
28677;DHT22;15858;48.338;11.078;2023-05-19T14:47:48;15.40;99.90
28677;DHT22;15858;48.338;11.078;2023-05-19T14:50:15;15.50;99.90
28677;DHT22;15858;48.338;11.078;2023-05-19T14:52:41;15.50;99.90
28677;DHT22;15858;48.338;11.078;2023-05-19T14:55:08;15.40;99.90
28677;DHT22;15858;48.338;11.078;2023-05-19T14:57:36;15.50;99.90
28677;DHT22;15858;48.338;11.078;2023-05-19T15:00:02;15.50;99.90
28677;DHT22;15858;48.338;11.078;2023-05-19T15:02:29;15.50;99.90
28677;DHT22;15858;48.338;11.078;2023-05-19T15:04:56;15.50;99.90
28677;DHT22;15858;48.338;11.078;2023-05-19T15:07:23;15.50;99.90
28677;DHT22;15858;48.338;11.078;2023-05-19T15:09:49;15.60;99.90
28677;DHT22;15858;48.338;11.078;2023-05-19T15:12:16;15.50;99.90
28677;DHT22;15858;48.338;11.078;2023-05-19T15:14:42;15.50;99.90
28677;DHT22;15858;48.338;11.078;2023-05-19T15:17:09;15.50;99.90
28677;DHT22;15858;48.338;11.078;2023-05-19T15:19:36;15.40;99.90
28677;DHT22;15858;48.338;11.078;2023-05-19T15:22:03;15.40;99.90
28677;DHT22;15858;48.338;11.078;2023-05-19T15:24:31;15.40;99.90
28677;DHT22;15858;48.338;11.078;2023-05-19T15:26:59;15.60;99.90
28677;DHT22;15858;48.338;11.078;2023-05-19T15:29:26;15.50;99.90
28677;DHT22;15858;48.338;11.078;2023-05-19T15:31:53;15.50;99.90
28677;DHT22;15858;48.338;11.078;2023-05-19T15:34:20;15.50;99.90
28677;DHT22;15858;48.338;11.078;2023-05-19T15:36:46;15.50;99.90
28677;DHT22;15858;48.338;11.078;2023-05-19T15:39:13;15.40;99.90
28677;DHT22;15858;48.338;11.078;2023-05-19T15:41:39;15.50;99.90
28677;DHT22;15858;48.338;11.078;2023-05-19T15:44:06;15.60;99.90
28677;DHT22;15858;48.338;11.078;2023-05-19T15:46:33;15.50;99.90
28677;DHT22;15858;48.338;11.078;2023-05-19T15:49:00;15.50;99.90
28677;DHT22;15858;48.338;11.078;2023-05-19T15:51:26;15.50;99.90